createdAt,value
2018-03-02T00:00:47.388Z,52.46
2018-03-02T00:03:15.995Z,52.62
2018-03-02T00:05:44.507Z,53.09
2018-03-02T00:08:13.068Z,52.92
2018-03-02T00:10:41.603Z,52.01
2018-03-02T00:13:10.103Z,53.36
2018-03-02T00:15:38.585Z,51.98
2018-03-02T00:18:07.110Z,53.62
2018-03-02T00:20:35.916Z,54.22
2018-03-02T00:23:04.448Z,54.82
2018-03-02T00:25:32.990Z,55.24
2018-03-02T00:28:01.474Z,56.37
2018-03-02T00:30:30.024Z,56.17
2018-03-02T00:32:58.503Z,56.00
2018-03-02T00:35:27.031Z,56.37
2018-03-02T00:37:55.503Z,55.83
2018-03-02T00:40:24.062Z,55.83
2018-03-02T00:42:52.542Z,56.87
2018-03-02T00:45:21.041Z,57.53
2018-03-02T00:47:49.557Z,57.71
2018-03-02T00:50:18.054Z,56.95
2018-03-02T00:52:46.586Z,56.92
2018-03-02T00:55:15.114Z,57.27
2018-03-02T00:57:43.703Z,57.50
2018-03-02T01:00:12.255Z,56.43
2018-03-02T01:02:40.826Z,56.49
2018-03-02T01:05:09.301Z,56.58
2018-03-02T01:07:37.782Z,56.00
2018-03-02T01:10:06.311Z,55.36
2018-03-02T01:12:34.835Z,56.34
2018-03-02T01:15:03.361Z,57.17
2018-03-02T01:17:31.878Z,56.18
2018-03-02T01:20:00.463Z,56.35
2018-03-02T01:22:28.990Z,56.83
2018-03-02T01:24:57.513Z,56.41
2018-03-02T01:27:25.990Z,55.76
2018-03-02T01:29:54.526Z,55.18
2018-03-02T01:32:23.009Z,54.83
2018-03-02T01:34:51.490Z,54.58
2018-03-02T01:37:20.057Z,54.77
2018-03-02T01:39:48.575Z,55.00
2018-03-02T01:42:17.195Z,54.85
2018-03-02T01:44:45.674Z,55.03
2018-03-02T01:47:14.208Z,55.08
2018-03-02T01:49:42.772Z,54.73
2018-03-02T01:52:11.298Z,55.15
2018-03-02T01:54:39.773Z,54.61
2018-03-02T01:57:08.251Z,55.29
2018-03-02T01:59:36.782Z,56.46
2018-03-02T02:02:05.318Z,56.81
2018-03-02T02:04:33.881Z,56.55
2018-03-02T02:07:02.361Z,56.35
2018-03-02T02:09:30.928Z,57.09
2018-03-02T02:11:59.470Z,57.61
2018-03-02T02:14:28.032Z,56.57
2018-03-02T02:16:56.526Z,55.59
2018-03-02T02:19:25.062Z,57.60
2018-03-02T02:21:53.603Z,56.62
2018-03-02T02:24:22.134Z,56.65
2018-03-02T02:26:50.663Z,56.63
2018-03-02T02:29:19.202Z,56.36
2018-03-02T02:31:47.710Z,56.78
2018-03-02T02:34:16.232Z,57.03
2018-03-02T02:36:44.755Z,56.18
2018-03-02T02:39:13.251Z,55.52
2018-03-02T02:41:41.819Z,55.56
2018-03-02T02:44:10.363Z,55.66
2018-03-02T02:46:38.863Z,55.31
2018-03-02T02:49:07.391Z,54.58
2018-03-02T02:51:35.876Z,55.01
2018-03-02T02:54:04.408Z,54.32
2018-03-02T02:56:32.954Z,54.42
2018-03-02T02:59:01.507Z,54.69
2018-03-02T03:01:29.991Z,54.97
2018-03-02T03:03:58.550Z,55.15
2018-03-02T03:06:27.088Z,54.42
2018-03-02T03:08:55.622Z,55.01
2018-03-02T03:11:24.200Z,56.24
2018-03-02T03:13:52.730Z,55.38
2018-03-02T03:16:21.258Z,56.43
2018-03-02T03:18:49.791Z,55.97
2018-03-02T03:21:18.291Z,56.50
2018-03-02T03:23:46.828Z,56.03
2018-03-02T03:26:15.314Z,56.76
2018-03-02T03:28:43.836Z,56.43
2018-03-02T03:31:12.367Z,55.92
2018-03-02T03:33:40.932Z,55.89
2018-03-02T03:36:09.447Z,55.40
2018-03-02T03:38:37.971Z,56.04
2018-03-02T03:41:06.469Z,55.57
2018-03-02T03:43:35.051Z,54.94
2018-03-02T03:46:03.570Z,54.66
2018-03-02T03:48:32.094Z,55.22
2018-03-02T03:51:00.622Z,55.81
2018-03-02T03:53:29.120Z,55.48
2018-03-02T03:55:57.647Z,55.35
2018-03-02T03:58:26.217Z,55.86
2018-03-02T04:00:54.734Z,55.05
2018-03-02T04:03:23.242Z,54.71
2018-03-02T04:05:51.802Z,54.90
2018-03-02T04:08:20.278Z,55.23
2018-03-02T04:10:48.787Z,54.57
2018-03-02T04:13:17.301Z,54.35
2018-03-02T04:15:45.782Z,53.82
2018-03-02T04:18:14.637Z,53.70
2018-03-02T04:20:43.123Z,53.73
2018-03-02T04:23:11.687Z,53.80
2018-03-02T04:25:40.219Z,53.96
2018-03-02T04:28:08.751Z,54.93
2018-03-02T04:30:38.002Z,54.05
2018-03-02T04:33:06.518Z,53.16
2018-03-02T04:35:35.034Z,52.67
2018-03-02T04:38:03.528Z,52.51
2018-03-02T04:40:32.046Z,52.65
2018-03-02T04:43:00.570Z,52.37
2018-03-02T04:45:29.108Z,52.66
2018-03-02T04:47:57.622Z,52.69
2018-03-02T04:50:26.148Z,52.41
2018-03-02T04:52:54.684Z,52.39
2018-03-02T04:55:23.181Z,52.03
2018-03-02T04:57:51.690Z,52.11
2018-03-02T05:00:20.240Z,52.17
2018-03-02T05:02:48.763Z,51.61
2018-03-02T05:05:17.282Z,51.52
2018-03-02T05:07:45.773Z,50.44
2018-03-02T05:10:14.284Z,50.57
2018-03-02T05:12:42.751Z,50.08
2018-03-02T05:15:11.273Z,50.62
2018-03-02T05:17:39.794Z,51.70
2018-03-02T05:20:08.338Z,51.95
2018-03-02T05:22:36.862Z,51.50
2018-03-02T05:25:05.381Z,52.14
2018-03-02T05:27:33.939Z,52.17
2018-03-02T05:30:02.503Z,52.16
2018-03-02T05:32:31.039Z,52.38
2018-03-02T05:34:59.520Z,52.87
2018-03-02T05:37:28.072Z,53.01
2018-03-02T05:39:56.758Z,53.26
2018-03-02T05:42:25.235Z,52.79
2018-03-02T05:44:53.723Z,52.98
2018-03-02T05:47:22.346Z,53.94
2018-03-02T05:49:50.916Z,54.01
2018-03-02T05:52:19.394Z,53.60
2018-03-02T05:54:47.886Z,54.44
2018-03-02T05:57:16.443Z,53.32
2018-03-02T05:59:45.023Z,52.80
2018-03-02T06:02:13.674Z,53.03
2018-03-02T06:04:42.179Z,53.14
2018-03-02T06:07:10.686Z,54.09
2018-03-02T06:09:39.167Z,54.69
2018-03-02T06:12:07.684Z,54.27
2018-03-02T06:14:36.238Z,54.11
2018-03-02T06:17:04.778Z,54.33
2018-03-02T06:19:33.296Z,53.83
2018-03-02T06:22:01.818Z,53.43
2018-03-02T06:24:30.338Z,53.86
2018-03-02T06:26:58.877Z,53.34
2018-03-02T06:29:27.357Z,53.10
2018-03-02T06:31:55.887Z,53.30
2018-03-02T06:34:24.458Z,53.17
2018-03-02T06:36:52.934Z,51.67
2018-03-02T06:39:21.482Z,47.42
2018-03-02T06:41:50.062Z,46.05
2018-03-02T06:44:18.582Z,44.09
2018-03-02T06:46:47.084Z,45.57
2018-03-02T06:49:15.726Z,48.94
2018-03-02T06:51:44.227Z,49.28
2018-03-02T06:54:12.782Z,45.81
2018-03-02T06:56:41.253Z,43.38
2018-03-02T06:59:09.751Z,41.80
2018-03-02T07:01:38.258Z,46.86
2018-03-02T07:04:06.805Z,44.36
2018-03-02T07:06:35.392Z,47.32
2018-03-02T07:09:04.005Z,48.52
2018-03-02T07:11:32.572Z,48.38
2018-03-02T07:14:01.085Z,48.83
2018-03-02T07:16:29.610Z,48.23
2018-03-02T07:18:58.110Z,47.50
2018-03-02T07:21:26.629Z,49.08
2018-03-02T07:23:55.267Z,49.08
2018-03-02T07:26:23.797Z,48.54
2018-03-02T07:28:52.333Z,47.95
2018-03-02T07:31:20.932Z,48.97
2018-03-02T07:33:49.409Z,48.95
2018-03-02T07:36:18.120Z,49.40
2018-03-02T07:38:46.592Z,50.73
2018-03-02T07:41:15.191Z,51.62
2018-03-02T07:43:43.663Z,50.63
2018-03-02T07:46:12.158Z,49.66
2018-03-02T07:48:40.661Z,49.89
2018-03-02T07:51:09.192Z,50.71
2018-03-02T07:53:37.668Z,50.47
2018-03-02T07:56:06.161Z,50.09
2018-03-02T07:58:34.715Z,48.51
2018-03-02T08:01:03.189Z,49.59
2018-03-02T08:03:31.743Z,50.05
2018-03-02T08:06:00.283Z,47.89
2018-03-02T08:08:28.878Z,46.75
2018-03-02T08:10:57.384Z,46.74
2018-03-02T08:13:25.912Z,45.50
2018-03-02T08:15:54.429Z,46.14
2018-03-02T08:18:22.926Z,46.06
2018-03-02T08:20:51.458Z,45.12
2018-03-02T08:23:19.994Z,43.38
2018-03-02T08:25:48.538Z,44.04
2018-03-02T08:28:17.048Z,44.92
2018-03-02T08:30:45.541Z,44.67
2018-03-02T08:33:14.059Z,44.83
2018-03-02T08:35:42.582Z,44.95
2018-03-02T08:38:11.166Z,43.70
2018-03-02T08:40:39.686Z,43.40
2018-03-02T08:43:08.225Z,43.71
2018-03-02T08:45:36.728Z,43.86
2018-03-02T08:48:05.292Z,42.03
2018-03-02T08:50:33.841Z,42.67
2018-03-02T08:53:02.370Z,44.28
2018-03-02T08:55:30.887Z,44.19
2018-03-02T08:57:59.389Z,44.18
2018-03-02T09:00:27.916Z,44.52
2018-03-02T09:02:56.472Z,43.82
2018-03-02T09:05:24.993Z,42.26
2018-03-02T09:07:53.518Z,43.28
2018-03-02T09:10:22.022Z,43.35
2018-03-02T09:12:50.555Z,42.53
2018-03-02T09:15:19.059Z,43.08
2018-03-02T09:17:47.565Z,42.73
2018-03-02T09:20:16.078Z,42.69
2018-03-02T09:22:44.614Z,43.62
2018-03-02T09:25:13.109Z,42.58
2018-03-02T09:27:41.575Z,43.98
2018-03-02T09:30:10.119Z,43.33
2018-03-02T09:32:38.650Z,42.44
2018-03-02T09:35:07.187Z,41.98
2018-03-02T09:37:35.664Z,41.99
2018-03-02T09:40:04.227Z,41.36
2018-03-02T09:42:32.768Z,41.81
2018-03-02T09:45:01.256Z,41.54
2018-03-02T09:47:29.835Z,42.39
2018-03-02T09:49:58.306Z,42.12
2018-03-02T09:52:26.783Z,42.55
2018-03-02T09:54:55.291Z,42.63
2018-03-02T09:57:23.799Z,42.00
2018-03-02T09:59:52.309Z,41.73
2018-03-02T10:02:20.850Z,39.79
2018-03-02T10:04:49.345Z,40.18
2018-03-02T10:07:17.887Z,40.90
2018-03-02T10:09:46.356Z,40.96
2018-03-02T10:12:14.851Z,40.18
2018-03-02T10:14:43.325Z,40.13
2018-03-02T10:17:11.833Z,40.16
2018-03-02T10:19:40.355Z,39.42
2018-03-02T10:22:08.875Z,40.39
2018-03-02T10:24:37.359Z,40.27
2018-03-02T10:27:05.831Z,38.79
2018-03-02T10:29:34.360Z,38.43
2018-03-02T10:32:02.866Z,39.44
2018-03-02T10:34:31.414Z,38.44
2018-03-02T10:36:59.914Z,36.98
2018-03-02T10:39:28.398Z,39.36
2018-03-02T10:41:56.938Z,37.20
2018-03-02T10:44:25.466Z,35.72
2018-03-02T10:46:53.926Z,37.33
2018-03-02T10:49:22.383Z,38.17
2018-03-02T10:51:51.006Z,34.97
2018-03-02T10:54:19.616Z,37.40
2018-03-02T10:56:48.093Z,38.86
2018-03-02T10:59:16.638Z,38.12
2018-03-02T11:01:50.638Z,38.94
2018-03-02T11:04:19.115Z,39.64
2018-03-02T11:06:47.650Z,38.96
2018-03-02T11:09:16.178Z,39.26
2018-03-02T11:11:44.691Z,39.09
2018-03-02T11:14:13.319Z,40.13
2018-03-02T11:16:41.767Z,38.51
2018-03-02T11:19:10.281Z,39.04
2018-03-02T11:21:38.746Z,40.19
2018-03-02T11:24:07.246Z,39.74
2018-03-02T11:26:35.733Z,38.59
2018-03-02T11:29:04.244Z,39.86
2018-03-02T11:31:32.785Z,39.96
2018-03-02T11:34:01.243Z,41.11
2018-03-02T11:36:29.773Z,40.99
2018-03-02T11:38:58.284Z,41.33
2018-03-02T11:41:26.795Z,40.48
2018-03-02T11:43:55.306Z,40.71
2018-03-02T11:46:23.809Z,40.28
2018-03-02T11:48:52.341Z,40.14
2018-03-02T11:51:20.844Z,41.81
2018-03-02T11:53:49.382Z,41.28
2018-03-02T11:56:17.886Z,39.72
2018-03-02T11:58:46.355Z,38.96
2018-03-02T12:01:14.888Z,39.82
2018-03-02T12:03:43.431Z,39.63
2018-03-02T12:06:11.955Z,40.20
2018-03-02T12:08:40.503Z,39.99
2018-03-02T12:11:09.032Z,40.54
2018-03-02T12:13:37.572Z,39.54
2018-03-02T12:16:06.058Z,39.80
2018-03-02T12:18:34.504Z,39.29
2018-03-02T12:21:03.000Z,39.18
2018-03-02T12:23:31.545Z,40.08
2018-03-02T12:26:00.024Z,39.32
2018-03-02T12:28:28.593Z,39.66
2018-03-02T12:30:57.104Z,38.24
2018-03-02T12:35:48.826Z,37.62
2018-03-02T12:38:17.307Z,39.79
2018-03-02T12:40:45.902Z,38.71
2018-03-02T12:43:14.534Z,39.11
2018-03-02T12:45:42.999Z,38.80
2018-03-02T12:48:11.455Z,37.17
2018-03-02T12:50:40.131Z,38.01
2018-03-02T12:53:08.610Z,37.41
2018-03-02T12:55:37.102Z,38.15
2018-03-02T12:58:05.561Z,37.74
2018-03-02T13:00:34.105Z,36.91
2018-03-02T13:03:02.672Z,37.85
2018-03-02T13:05:31.146Z,37.61
2018-03-02T13:07:59.711Z,36.43
2018-03-02T13:10:28.214Z,37.10
2018-03-02T13:12:56.730Z,36.52
2018-03-02T13:15:25.199Z,37.39
2018-03-02T13:17:53.697Z,36.19
2018-03-02T13:20:22.234Z,37.61
2018-03-02T13:22:50.742Z,37.17
2018-03-02T13:25:19.275Z,37.64
2018-03-02T13:27:59.426Z,36.94
2018-03-02T13:30:27.917Z,36.62
2018-03-02T13:33:07.998Z,37.22
2018-03-02T13:35:36.577Z,36.05
2018-03-02T13:38:05.078Z,36.70
2018-03-02T13:40:45.242Z,36.45
2018-03-02T13:43:13.699Z,36.19
2018-03-02T13:45:42.228Z,37.13
2018-03-02T13:51:10.414Z,36.30
2018-03-02T13:53:39.034Z,36.57
2018-03-02T13:56:07.630Z,36.60
2018-03-02T13:58:36.078Z,36.31
2018-03-02T14:01:04.697Z,37.27
2018-03-02T14:03:44.799Z,37.77
2018-03-02T14:06:13.289Z,37.29
2018-03-02T14:08:41.801Z,37.41
2018-03-02T14:11:10.302Z,38.34
2018-03-02T14:13:38.802Z,38.12
2018-03-02T14:16:07.370Z,37.88
2018-03-02T14:18:35.858Z,38.20
2018-03-02T14:21:04.389Z,38.21
2018-03-02T14:23:32.923Z,39.86
2018-03-02T14:26:01.452Z,39.30
2018-03-02T14:28:29.977Z,39.08
2018-03-02T14:30:58.519Z,38.87
2018-03-02T14:33:27.044Z,40.01
2018-03-02T14:35:55.594Z,39.56
2018-03-02T14:38:24.056Z,39.97
2018-03-02T14:40:52.598Z,39.46
2018-03-02T14:43:21.130Z,39.75
2018-03-02T14:45:49.730Z,39.55
2018-03-02T14:48:18.252Z,40.21
2018-03-02T14:50:46.722Z,41.03
2018-03-02T14:53:15.267Z,40.47
2018-03-02T14:55:43.750Z,40.48
2018-03-02T14:58:12.259Z,40.26
2018-03-02T15:00:40.798Z,40.30
2018-03-02T15:03:09.360Z,40.88
2018-03-02T15:05:38.615Z,41.21
2018-03-02T15:08:07.116Z,40.97
2018-03-02T15:10:35.618Z,40.76
2018-03-02T15:13:04.102Z,41.12
2018-03-02T15:15:32.610Z,42.48
2018-03-02T15:18:01.094Z,41.38
2018-03-02T15:20:29.631Z,41.41
2018-03-02T15:22:58.155Z,41.29
2018-03-02T15:25:26.674Z,41.28
2018-03-02T15:27:55.150Z,42.86
2018-03-02T15:30:23.663Z,43.16
2018-03-02T15:32:52.246Z,42.33
2018-03-02T15:35:20.702Z,42.78
2018-03-02T15:37:49.179Z,43.81
2018-03-02T15:40:17.685Z,42.35
2018-03-02T15:42:46.224Z,42.31
2018-03-02T15:45:14.722Z,42.21
2018-03-02T15:47:43.303Z,43.00
2018-03-02T15:50:11.839Z,42.36
2018-03-02T15:52:40.326Z,42.44
2018-03-02T15:55:08.828Z,42.71
2018-03-02T15:57:37.315Z,42.98
2018-03-02T16:00:05.817Z,42.78
2018-03-02T16:02:34.350Z,42.58
2018-03-02T16:05:02.882Z,43.24
2018-03-02T16:07:31.385Z,42.47
2018-03-02T16:09:59.862Z,43.04
2018-03-02T16:12:28.321Z,43.45
2018-03-02T16:14:56.886Z,42.89
2018-03-02T16:17:25.358Z,42.64
2018-03-02T16:19:53.869Z,43.54
2018-03-02T16:22:22.348Z,44.39
2018-03-02T16:24:50.854Z,43.53
2018-03-02T16:27:19.343Z,45.40
2018-03-02T16:29:47.830Z,45.01
2018-03-02T16:32:16.290Z,44.52
2018-03-02T16:34:44.950Z,44.32
2018-03-02T16:37:13.422Z,44.11
2018-03-02T16:39:41.922Z,44.04
2018-03-02T16:42:10.399Z,46.04
2018-03-02T16:44:38.908Z,47.76
2018-03-02T16:47:07.402Z,45.92
2018-03-02T16:49:35.898Z,46.29
2018-03-02T16:52:04.459Z,46.27
2018-03-02T16:54:32.919Z,46.39
2018-03-02T16:57:01.422Z,47.36
2018-03-02T16:59:29.892Z,45.84
2018-03-02T17:01:58.422Z,47.25
2018-03-02T17:04:26.883Z,46.67
2018-03-02T17:06:55.426Z,46.25
2018-03-02T17:09:23.926Z,46.02
2018-03-02T17:11:52.438Z,47.79
2018-03-02T17:14:20.926Z,47.22
2018-03-02T17:16:49.431Z,46.70
2018-03-02T17:19:17.927Z,46.69
2018-03-02T17:21:46.386Z,47.73
2018-03-02T17:24:14.882Z,48.86
2018-03-02T17:26:43.378Z,48.83
2018-03-02T17:29:11.875Z,49.30
2018-03-02T17:31:40.370Z,49.90
2018-03-02T17:34:08.910Z,50.54
2018-03-02T17:36:37.397Z,50.30
2018-03-02T17:39:05.859Z,50.23
2018-03-02T17:41:34.318Z,50.44
2018-03-02T17:44:02.800Z,50.96
2018-03-02T17:46:31.290Z,51.48
2018-03-02T17:48:59.767Z,52.48
2018-03-02T17:51:28.280Z,50.67
2018-03-02T17:53:56.742Z,50.77
2018-03-02T17:56:25.280Z,50.27
2018-03-02T17:58:53.814Z,51.09
2018-03-02T18:01:22.381Z,51.12
2018-03-02T18:03:50.846Z,50.51
2018-03-02T18:06:19.550Z,51.83
2018-03-02T18:08:48.093Z,52.44
2018-03-02T18:11:16.601Z,52.28
2018-03-02T18:13:45.079Z,51.99
2018-03-02T18:16:13.534Z,52.00
2018-03-02T18:18:42.029Z,52.30
2018-03-02T18:21:10.486Z,52.25
2018-03-02T18:23:38.986Z,50.81
2018-03-02T18:26:07.474Z,50.85
2018-03-02T18:28:36.032Z,51.83
2018-03-02T18:31:04.530Z,51.48
2018-03-02T18:33:33.022Z,51.79
2018-03-02T18:36:01.482Z,52.02
2018-03-02T18:38:30.032Z,50.67
2018-03-02T18:40:58.514Z,51.18
2018-03-02T18:43:26.974Z,50.64
2018-03-02T18:45:55.469Z,50.81
2018-03-02T18:48:23.977Z,52.67
2018-03-02T18:50:52.451Z,51.17
2018-03-02T18:53:20.914Z,51.54
2018-03-02T18:55:49.416Z,52.69
2018-03-02T18:58:17.884Z,52.85
2018-03-02T19:00:46.386Z,51.92
2018-03-02T19:03:14.857Z,52.07
2018-03-02T19:05:43.318Z,51.84
2018-03-02T19:08:11.821Z,53.30
2018-03-02T19:10:40.294Z,51.98
2018-03-02T19:13:08.814Z,53.24
2018-03-02T19:15:37.802Z,53.33
2018-03-02T19:18:06.308Z,52.77
2018-03-02T19:20:34.850Z,51.79
2018-03-02T19:23:03.414Z,51.68
2018-03-02T19:25:31.874Z,52.59
2018-03-02T19:28:00.320Z,52.41
2018-03-02T19:30:28.860Z,52.48
2018-03-02T19:32:57.363Z,51.24
2018-03-02T19:35:25.826Z,52.04
2018-03-02T19:37:54.338Z,51.46
2018-03-02T19:40:22.819Z,52.28
2018-03-02T19:42:51.327Z,51.33
2018-03-02T19:45:19.884Z,50.58
2018-03-02T19:47:48.360Z,50.94
2018-03-02T19:50:16.866Z,50.80
2018-03-02T19:52:45.335Z,52.12
2018-03-02T19:55:13.826Z,52.09
2018-03-02T19:57:42.358Z,51.40
2018-03-02T20:00:10.838Z,51.07
2018-03-02T20:02:39.315Z,51.07
2018-03-02T20:05:07.822Z,53.23
2018-03-02T20:07:36.330Z,52.12
2018-03-02T20:10:04.809Z,51.28
2018-03-02T20:12:33.291Z,51.17
2018-03-02T20:15:01.795Z,51.34
2018-03-02T20:17:30.299Z,51.40
2018-03-02T20:19:58.765Z,51.05
2018-03-02T20:22:27.306Z,51.08
2018-03-02T20:24:55.786Z,51.57
2018-03-02T20:27:24.246Z,51.19
2018-03-02T20:29:52.782Z,51.85
2018-03-02T20:32:21.267Z,51.44
2018-03-02T20:34:49.784Z,51.61
2018-03-02T20:37:18.255Z,50.97
2018-03-02T20:39:46.801Z,51.54
2018-03-02T20:42:15.431Z,51.31
2018-03-02T20:44:43.934Z,52.92
2018-03-02T20:47:12.398Z,53.50
2018-03-02T20:49:40.950Z,52.07
2018-03-02T20:52:09.465Z,55.89
2018-03-02T20:54:38.005Z,54.18
2018-03-02T20:57:06.546Z,53.07
2018-03-02T20:59:35.115Z,53.52
2018-03-02T21:02:03.588Z,53.30
2018-03-02T21:04:32.157Z,54.32
2018-03-02T21:07:00.635Z,54.35
2018-03-02T21:09:29.104Z,55.35
2018-03-02T21:11:57.606Z,55.35
2018-03-02T21:14:26.113Z,55.51
2018-03-02T21:16:54.582Z,54.81
2018-03-02T21:19:23.090Z,53.67
2018-03-02T21:21:51.595Z,55.75
2018-03-02T21:24:20.056Z,55.15
2018-03-02T21:26:48.559Z,56.23
2018-03-02T21:29:17.023Z,55.99
2018-03-02T21:31:45.527Z,55.48
2018-03-02T21:34:18.975Z,56.54
2018-03-02T21:36:42.552Z,55.31
2018-03-02T21:39:12.138Z,57.32
2018-03-02T21:41:39.534Z,56.06
2018-03-02T21:44:08.049Z,56.18
2018-03-02T21:46:36.506Z,56.71
2018-03-02T21:49:04.995Z,58.17
2018-03-02T21:51:33.501Z,56.77
2018-03-02T21:54:01.962Z,55.94
2018-03-02T21:56:30.484Z,55.47
2018-03-02T21:58:58.987Z,55.59
2018-03-02T22:01:27.450Z,55.22
2018-03-02T22:03:56.014Z,57.59
2018-03-02T22:06:24.482Z,56.33
2018-03-02T22:08:52.945Z,56.97
2018-03-02T22:11:21.467Z,56.14
2018-03-02T22:13:49.976Z,55.19
2018-03-02T22:16:18.501Z,55.79
2018-03-02T22:18:46.970Z,54.99
2018-03-02T22:21:15.479Z,55.30
2018-03-02T22:23:43.947Z,54.71
2018-03-02T22:26:12.446Z,57.42
2018-03-02T22:28:40.982Z,56.40
2018-03-02T22:31:09.489Z,56.24
2018-03-02T22:33:38.003Z,56.31
2018-03-02T22:36:06.510Z,56.05
2018-03-02T22:38:34.989Z,55.84
2018-03-02T22:41:03.462Z,55.45
2018-03-02T22:43:31.966Z,55.19
2018-03-02T22:46:00.445Z,56.89
2018-03-02T22:48:28.954Z,55.63
2018-03-02T22:50:57.458Z,54.97
2018-03-02T22:53:25.921Z,55.63
2018-03-02T22:55:54.430Z,56.13
2018-03-02T22:58:22.897Z,59.16
2018-03-02T23:00:51.407Z,57.02
2018-03-02T23:03:19.870Z,56.68
2018-03-02T23:05:48.361Z,56.05
2018-03-02T23:08:16.851Z,55.80
2018-03-02T23:10:45.325Z,55.32
2018-03-02T23:13:13.819Z,55.11
2018-03-02T23:15:42.300Z,55.17
2018-03-02T23:18:10.818Z,55.62
2018-03-02T23:20:39.302Z,54.73
2018-03-02T23:23:07.802Z,55.80
2018-03-02T23:25:36.298Z,55.76
2018-03-02T23:28:04.804Z,55.65
2018-03-02T23:30:33.290Z,56.90
2018-03-02T23:33:01.814Z,56.08
2018-03-02T23:35:30.261Z,55.41
2018-03-02T23:37:59.709Z,55.47
2018-03-02T23:40:28.187Z,55.70
2018-03-02T23:42:56.683Z,57.37
2018-03-02T23:45:25.145Z,56.65
2018-03-02T23:47:53.633Z,57.63
2018-03-02T23:50:22.098Z,56.65
2018-03-02T23:52:50.612Z,57.23
2018-03-02T23:55:19.103Z,57.54
2018-03-02T23:57:47.635Z,58.27
